Time;durP1;ratioP1;P1;durP2;ratioP2;P2;SDS_P1;SDS_P2;PMS_P1;PMS_P2;Temp;Humidity;BMP_temperature;BMP_pressure;BME280_temperature;BME280_humidity;BME280_pressure;Samples;Min_cycle;Max_cycle;Signal;HPM_P1;HPM_P2
2023/08/08 00:00:34;;;;;;;31.98;6.95;;;21.90;93.80;;;;;;5092484;28;20047;-69
2023/08/08 00:03:38;;;;;;;32.55;6.93;;;22.10;94.00;;;;;;5092506;28;20050;-69
2023/08/08 00:06:42;;;;;;;24.35;6.32;;;22.10;93.80;;;;;;5093121;28;20035;-69
2023/08/08 00:09:46;;;;;;;20.52;6.05;;;23.10;94.00;;;;;;5092619;28;20051;-69
2023/08/08 00:12:50;;;;;;;27.45;6.47;;;22.10;93.70;;;;;;5092172;28;20059;-69
2023/08/08 00:15:54;;;;;;;21.92;6.38;;;22.20;93.90;;;;;;5091954;28;20080;-69
2023/08/08 00:18:58;;;;;;;33.50;5.93;;;22.10;93.80;;;;;;5092252;28;20036;-69
2023/08/08 00:22:03;;;;;;;24.45;5.85;;;21.90;93.80;;;;;;5092002;28;20515;-69
2023/08/08 00:25:08;;;;;;;27.88;6.45;;;22.00;93.90;;;;;;5091785;28;20035;-68
2023/08/08 00:28:12;;;;;;;28.52;6.60;;;21.90;93.90;;;;;;5091818;28;20391;-69
2023/08/08 00:31:19;;;;;;;23.70;5.47;;;22.00;94.20;;;;;;5091149;28;20047;-69
2023/08/08 00:34:23;;;;;;;21.73;6.53;;;23.30;94.40;;;;;;5091909;28;20507;-69
2023/08/08 00:37:27;;;;;;;26.90;6.43;;;21.60;94.00;;;;;;5090687;28;20063;-69
2023/08/08 00:40:31;;;;;;;27.55;6.75;;;21.90;94.10;;;;;;5091626;28;20055;-68
2023/08/08 00:43:35;;;;;;;25.63;7.45;;;19.80;93.70;;;;;;5090691;28;20396;-68
2023/08/08 00:46:39;;;;;;;20.65;5.60;;;21.80;94.40;;;;;;5090586;28;20035;-69
2023/08/08 00:49:46;;;;;;;22.25;6.05;;;21.70;94.40;;;;;;5091944;28;20063;-69
2023/08/08 00:52:50;;;;;;;27.33;6.10;;;21.60;94.60;;;;;;5091272;28;20067;-69
2023/08/08 00:55:54;;;;;;;26.35;6.50;;;21.60;94.80;;;;;;5091568;28;20047;-69
2023/08/08 00:58:59;;;;;;;17.63;6.10;;;;;;;;;;5091658;28;20601;-69
2023/08/08 01:02:03;;;;;;;21.52;5.80;;;22.60;95.00;;;;;;5091195;28;20530;-69
2023/08/08 01:05:08;;;;;;;23.35;6.80;;;21.30;95.00;;;;;;5091445;28;20550;-69
2023/08/08 01:08:19;;;;;;;26.17;6.05;;;21.30;95.20;;;;;;5091487;28;20098;-69
2023/08/08 01:11:25;;;;;;;22.17;5.80;;;21.20;95.20;;;;;;5091352;28;20052;-69
2023/08/08 01:14:32;;;;;;;33.03;6.45;;;21.40;95.50;;;;;;5090102;28;20039;-68
2023/08/08 01:17:37;;;;;;;24.80;5.78;;;21.30;95.30;;;;;;5091261;28;20043;-69
2023/08/08 01:20:42;;;;;;;30.55;7.25;;;21.30;95.00;;;;;;5091153;28;20184;-68
2023/08/08 01:23:56;;;;;;;29.35;6.43;;;21.30;94.80;;;;;;5091055;28;20047;-69
2023/08/08 01:27:01;;;;;;;20.52;5.88;;;20.10;94.70;;;;;;5090975;28;20047;-69
2023/08/08 01:30:07;;;;;;;23.20;5.93;;;21.30;94.90;;;;;;5090058;28;20043;-69
2023/08/08 01:33:11;;;;;;;26.17;7.22;;;21.30;95.10;;;;;;5078660;28;20297;-69
2023/08/08 01:36:22;;;;;;;32.28;10.20;;;21.30;94.70;;;;;;5090837;28;20538;-69
2023/08/08 01:39:29;;;;;;;30.23;9.45;;;20.40;94.80;;;;;;5090700;28;20059;-69
2023/08/08 01:42:34;;;;;;;32.45;9.75;;;21.80;95.00;;;;;;5090436;28;20051;-68
2023/08/08 01:45:38;;;;;;;19.55;6.10;;;21.30;94.90;;;;;;5089972;28;20055;-69
2023/08/08 01:48:46;;;;;;;22.30;6.50;;;21.20;94.90;;;;;;5090824;28;20546;-69
2023/08/08 01:51:52;;;;;;;24.05;6.15;;;21.10;95.20;;;;;;5091070;28;20051;-69
2023/08/08 01:54:56;;;;;;;27.15;6.05;;;21.00;95.40;;;;;;5089997;28;20047;-69
2023/08/08 01:57:59;;;;;;;20.63;7.00;;;19.10;95.00;;;;;;5090045;28;20047;-68
2023/08/08 02:01:03;;;;;;;17.77;6.25;;;21.00;95.60;;;;;;5089870;28;20055;-69
2023/08/08 02:04:07;;;;;;;21.30;5.57;;;21.00;95.10;;;;;;5091308;28;20491;-68
2023/08/08 02:07:11;;;;;;;21.05;6.13;;;21.80;95.40;;;;;;5090673;28;20039;-68
2023/08/08 02:10:15;;;;;;;17.42;5.13;;;21.00;95.20;;;;;;5090057;28;20039;-69
2023/08/08 02:13:19;;;;;;;27.58;5.50;;;20.90;95.30;;;;;;5090457;28;20047;-69
2023/08/08 02:16:23;;;;;;;20.45;5.55;;;21.00;95.30;;;;;;5090715;28;20043;-69
2023/08/08 02:19:26;;;;;;;55.58;6.85;;;20.90;95.30;;;;;;5090635;28;20043;-69
2023/08/08 02:22:31;;;;;;;17.50;6.00;;;21.00;95.30;;;;;;5089540;28;20419;-68
2023/08/08 02:25:36;;;;;;;15.52;5.20;;;20.90;94.90;;;;;;5090431;28;20051;-68
2023/08/08 02:28:40;;;;;;;18.58;5.85;;;20.70;94.90;;;;;;5089706;28;20051;-68
2023/08/08 02:31:44;;;;;;;17.08;4.97;;;20.90;95.00;;;;;;5090915;28;20043;-69
2023/08/08 02:34:48;;;;;;;16.98;5.10;;;21.00;95.20;;;;;;5090569;28;20058;-68
2023/08/08 02:37:52;;;;;;;18.83;5.13;;;21.00;94.80;;;;;;5089683;28;20072;-69
2023/08/08 02:40:56;;;;;;;22.08;6.00;;;23.60;95.20;;;;;;5092957;28;20055;-68
2023/08/08 02:43:59;;;;;;;22.33;5.38;;;21.10;94.80;;;;;;5094006;28;20047;-69
2023/08/08 02:47:04;;;;;;;21.02;5.78;;;21.00;94.60;;;;;;5093082;28;20043;-69
2023/08/08 02:50:08;;;;;;;19.67;4.82;;;20.80;94.80;;;;;;5093991;28;20047;-69
2023/08/08 02:53:12;;;;;;;11.32;4.45;;;20.70;95.10;;;;;;5093769;28;20043;-69
2023/08/08 02:56:21;;;;;;;19.48;5.00;;;20.70;95.00;;;;;;5093697;28;20055;-69
2023/08/08 02:59:27;;;;;;;19.60;5.43;;;21.00;95.50;;;;;;5092726;28;20042;-68
2023/08/08 03:02:31;;;;;;;21.27;6.38;;;20.40;95.60;;;;;;5092493;28;20050;-69
2023/08/08 03:05:36;;;;;;;27.92;6.45;;;20.50;95.80;;;;;;5092926;28;20047;-69
2023/08/08 03:08:39;;;;;;;22.20;6.65;;;20.60;95.20;;;;;;5092749;28;20404;-68
2023/08/08 03:11:44;;;;;;;19.70;6.15;;;20.10;95.20;;;;;;5092398;28;20043;-68
2023/08/08 03:14:52;;;;;;;17.05;6.70;;;20.70;95.30;;;;;;5092446;28;20039;-68
2023/08/08 03:17:56;;;;;;;23.05;6.75;;;20.60;94.90;;;;;;5092435;28;20043;-68
2023/08/08 03:21:00;;;;;;;24.20;7.03;;;22.10;95.40;;;;;;5092312;28;20039;-69
2023/08/08 03:24:07;;;;;;;24.77;6.38;;;20.60;95.10;;;;;;5092395;28;20263;-68
2023/08/08 03:27:11;;;;;;;23.02;6.78;;;20.50;95.20;;;;;;5092075;28;20051;-68
2023/08/08 03:30:15;;;;;;;26.33;7.55;;;20.50;95.20;;;;;;5092501;28;20047;-68
2023/08/08 03:33:20;;;;;;;19.48;6.30;;;20.50;95.20;;;;;;5092190;28;20042;-68
2023/08/08 03:36:24;;;;;;;19.40;7.63;;;20.50;95.60;;;;;;5092245;28;20066;-69
2023/08/08 03:39:28;;;;;;;14.82;5.97;;;20.50;95.60;;;;;;5092353;28;20090;-68
2023/08/08 03:42:32;;;;;;;20.77;6.63;;;20.30;95.20;;;;;;5091793;28;20051;-68
2023/08/08 03:45:36;;;;;;;20.15;5.40;;;20.40;95.50;;;;;;5091922;28;20040;-68
2023/08/08 03:48:40;;;;;;;16.02;5.28;;;20.30;95.40;;;;;;5092966;28;20047;-69
2023/08/08 03:51:44;;;;;;;18.10;5.78;;;20.30;95.60;;;;;;5092324;28;20059;-68
2023/08/08 03:54:48;;;;;;;19.27;4.55;;;20.30;95.40;;;;;;5091799;28;20396;-69
2023/08/08 03:57:52;;;;;;;17.60;4.72;;;20.20;95.60;;;;;;5091951;28;20043;-68
2023/08/08 04:00:56;;;;;;;21.05;5.15;;;20.10;95.80;;;;;;5091548;28;20047;-68
2023/08/08 04:04:00;;;;;;;17.52;5.07;;;20.20;95.80;;;;;;5091845;28;20047;-68
2023/08/08 04:07:04;;;;;;;14.77;5.32;;;20.10;95.90;;;;;;5091869;28;20043;-68
2023/08/08 04:10:08;;;;;;;16.73;4.72;;;20.10;95.60;;;;;;5091630;28;20050;-68
2023/08/08 04:13:12;;;;;;;26.35;4.85;;;20.30;95.40;;;;;;5092441;28;20047;-69
2023/08/08 04:16:16;;;;;;;17.63;4.63;;;20.20;95.50;;;;;;5091657;28;20054;-68
2023/08/08 04:19:20;;;;;;;27.70;7.93;;;20.20;95.70;;;;;;5092087;28;20065;-68
2023/08/08 04:22:23;;;;;;;26.00;5.38;;;20.20;95.90;;;;;;5091981;28;20059;-69
2023/08/08 04:25:28;;;;;;;20.80;4.80;;;20.10;95.70;;;;;;5092072;28;20047;-68
2023/08/08 04:28:32;;;;;;;18.05;5.38;;;20.10;95.90;;;;;;5091924;28;20051;-68
2023/08/08 04:31:36;;;;;;;21.98;4.97;;;20.30;95.80;;;;;;5092096;28;20503;-68
2023/08/08 04:34:40;;;;;;;23.85;5.40;;;20.30;95.20;;;;;;5092245;28;20063;-69
2023/08/08 04:37:44;;;;;;;17.92;5.25;;;20.40;95.30;;;;;;5091626;28;20058;-69
2023/08/08 04:40:48;;;;;;;34.67;6.07;;;20.40;95.50;;;;;;5091578;28;20035;-69
2023/08/08 04:43:52;;;;;;;30.67;5.55;;;21.00;95.00;;;;;;5091798;28;20059;-69
2023/08/08 04:46:55;;;;;;;20.98;5.35;;;21.70;94.10;;;;;;5091688;28;20043;-69
2023/08/08 04:49:59;;;;;;;19.63;6.38;;;22.00;93.80;;;;;;5091554;28;20039;-69
2023/08/08 04:53:03;;;;;;;21.40;6.72;;;22.90;92.40;;;;;;5091359;28;20043;-69
2023/08/08 04:56:08;;;;;;;17.65;5.00;;;24.00;90.70;;;;;;5091631;28;20051;-69
2023/08/08 04:59:12;;;;;;;20.58;5.20;;;24.30;88.40;;;;;;5091368;28;20047;-69
2023/08/08 05:02:16;;;;;;;21.30;5.95;;;24.20;88.60;;;;;;5090694;28;20059;-69
2023/08/08 05:05:20;;;;;;;21.65;5.60;;;25.10;86.10;;;;;;5091260;28;20430;-69
2023/08/08 05:08:24;;;;;;;25.30;6.32;;;25.50;85.00;;;;;;5091502;28;20055;-69
2023/08/08 05:11:27;;;;;;;27.52;5.22;;;26.40;82.50;;;;;;5091451;28;20042;-69
2023/08/08 05:14:31;;;;;;;16.70;5.28;;;26.40;82.90;;;;;;5090595;28;20047;-68
2023/08/08 05:17:36;;;;;;;25.80;7.10;;;28.10;78.80;;;;;;5091019;28;20051;-71
2023/08/08 05:20:39;;;;;;;18.38;6.75;;;28.10;78.90;;;;;;5091237;28;20043;-73
2023/08/08 05:23:44;;;;;;;25.67;6.80;;;28.00;78.80;;;;;;5090997;28;20337;-71
2023/08/08 05:26:48;;;;;;;41.85;9.35;;;26.80;81.40;;;;;;5090724;28;20051;-71
2023/08/08 05:29:51;;;;;;;38.50;8.18;;;26.70;81.70;;;;;;5091166;28;20051;-72
2023/08/08 05:32:55;;;;;;;31.00;8.88;;;26.70;82.20;;;;;;5090947;28;20039;-72
2023/08/08 05:35:59;;;;;;;32.00;8.18;;;26.30;83.40;;;;;;5091224;28;20063;-71
2023/08/08 05:39:03;;;;;;;49.20;9.05;;;25.60;84.20;;;;;;5090702;28;20047;-71
2023/08/08 05:42:08;;;;;;;32.80;7.05;;;25.70;84.80;;;;;;5090704;28;20043;-70
2023/08/08 05:45:11;;;;;;;21.75;7.30;;;25.60;85.30;;;;;;5090944;28;20059;-71
2023/08/08 05:48:15;;;;;;;24.65;6.32;;;25.60;85.70;;;;;;5091009;28;20070;-71
2023/08/08 05:51:19;;;;;;;15.93;5.68;;;25.70;85.10;;;;;;5090795;28;20047;-72
2023/08/08 05:54:23;;;;;;;23.52;6.53;;;25.60;85.60;;;;;;5090616;28;20039;-72
2023/08/08 05:57:27;;;;;;;20.15;6.18;;;25.50;85.70;;;;;;5090943;28;20054;-72
2023/08/08 06:00:31;;;;;;;25.33;7.70;;;25.50;86.20;;;;;;5090880;28;20051;-72
2023/08/08 06:03:37;;;;;;;29.60;8.48;;;25.00;86.20;;;;;;5090908;28;20165;-72
2023/08/08 06:06:41;;;;;;;30.92;6.82;;;24.70;87.50;;;;;;5090534;28;20059;-72
2023/08/08 06:09:45;;;;;;;21.92;6.63;;;24.60;88.40;;;;;;5090801;28;20071;-71
2023/08/08 06:12:49;;;;;;;22.85;6.25;;;24.90;88.00;;;;;;5090655;28;20043;-72
2023/08/08 06:15:53;;;;;;;22.50;6.05;;;25.10;87.10;;;;;;5094783;28;20043;-72
2023/08/08 06:18:57;;;;;;;24.75;5.68;;;25.50;86.30;;;;;;5094439;28;20043;-72
2023/08/08 06:22:02;;;;;;;21.50;5.85;;;25.50;86.20;;;;;;5094259;28;20046;-68
2023/08/08 06:25:07;;;;;;;22.27;6.10;;;25.60;85.70;;;;;;5094467;28;20039;-68
2023/08/08 06:28:11;;;;;;;36.67;6.45;;;25.70;85.60;;;;;;5094612;28;20055;-69
2023/08/08 06:31:15;;;;;;;34.65;6.28;;;26.10;85.60;;;;;;5094152;28;20047;-68
2023/08/08 06:34:19;;;;;;;21.08;4.65;;;26.30;84.70;;;;;;5094185;28;20063;-68
2023/08/08 06:37:23;;;;;;;26.20;5.78;;;26.70;83.00;;;;;;5094233;28;20118;-69
2023/08/08 06:40:27;;;;;;;22.63;5.43;;;26.80;82.60;;;;;;5094748;28;20047;-68
2023/08/08 06:43:31;;;;;;;18.48;4.38;;;26.80;82.10;;;;;;5094547;28;20055;-69
2023/08/08 06:46:35;;;;;;;15.45;4.60;;;27.10;82.40;;;;;;5093933;28;20067;-68
2023/08/08 06:49:39;;;;;;;18.25;4.45;;;27.30;80.90;;;;;;5094291;28;20070;-69
2023/08/08 06:52:43;;;;;;;21.83;5.05;;;27.40;80.20;;;;;;5094035;28;20041;-67
2023/08/08 06:55:47;;;;;;;20.17;4.60;;;27.50;80.60;;;;;;5094339;28;20055;-77
2023/08/08 06:58:51;;;;;;;20.30;4.63;;;27.70;79.30;;;;;;5094129;28;20043;-66
2023/08/08 07:01:56;;;;;;;18.73;3.50;;;27.90;77.90;;;;;;5093972;28;20051;-73
2023/08/08 07:05:00;;;;;;;13.32;3.47;;;28.00;75.90;;;;;;5094039;28;20118;-74
2023/08/08 07:08:04;;;;;;;14.43;3.58;;;28.30;75.00;;;;;;5093751;28;20035;-73
2023/08/08 07:11:08;;;;;;;14.05;3.95;;;28.70;73.70;;;;;;5093704;28;20059;-71
2023/08/08 07:14:11;;;;;;;14.40;3.08;;;28.90;73.40;;;;;;5093600;28;20042;-74
2023/08/08 07:17:16;;;;;;;12.77;3.20;;;29.00;71.80;;;;;;5093568;28;20051;-74
2023/08/08 07:20:20;;;;;;;17.42;4.00;;;29.10;71.20;;;;;;5093425;28;20492;-77
2023/08/08 07:23:24;;;;;;;11.68;3.15;;;29.40;69.30;;;;;;5093300;28;20071;-76
2023/08/08 07:26:27;;;;;;;11.73;3.17;;;29.40;68.40;;;;;;5092443;28;20225;-67
2023/08/08 07:29:31;;;;;;;9.65;3.03;;;29.50;68.60;;;;;;5092462;28;20051;-68
2023/08/08 07:32:35;;;;;;;8.95;3.05;;;29.30;67.00;;;;;;5093240;28;20035;-67
2023/08/08 07:35:39;;;;;;;9.27;3.20;;;28.90;68.10;;;;;;5093204;28;20074;-67
2023/08/08 07:38:43;;;;;;;12.90;2.50;;;29.10;67.40;;;;;;5092361;28;20503;-67
2023/08/08 07:41:47;;;;;;;9.85;2.40;;;29.40;64.40;;;;;;5092617;28;20506;-71
2023/08/08 07:44:51;;;;;;;6.00;2.58;;;29.40;63.10;;;;;;5093266;28;20057;-68
2023/08/08 07:47:55;;;;;;;11.25;2.47;;;29.60;64.30;;;;;;5092546;28;20043;-70
2023/08/08 07:50:59;;;;;;;9.02;2.28;;;29.90;63.20;;;;;;5092586;28;20051;-69
2023/08/08 07:54:05;;;;;;;9.48;2.42;;;30.00;63.00;;;;;;5093033;28;20511;-70
2023/08/08 07:57:10;;;;;;;8.05;2.60;;;30.30;62.30;;;;;;5092822;28;20051;-69
2023/08/08 08:00:18;;;;;;;4.68;2.25;;;30.60;62.20;;;;;;5092830;28;20205;-68
2023/08/08 08:03:22;;;;;;;13.82;3.63;;;30.50;61.30;;;;;;5092469;28;20047;-71
2023/08/08 08:06:26;;;;;;;19.23;3.20;;;30.60;61.20;;;;;;5091759;28;20495;-69
2023/08/08 08:09:30;;;;;;;8.40;2.85;;;30.20;60.90;;;;;;5092493;28;20039;-68
2023/08/08 08:12:35;;;;;;;7.75;2.58;;;30.00;60.50;;;;;;5092492;28;20047;-68
2023/08/08 08:15:39;;;;;;;7.93;2.60;;;29.90;61.30;;;;;;5092403;28;20043;-69
2023/08/08 08:18:43;;;;;;;8.02;2.67;;;29.90;60.30;;;;;;5092288;28;20047;-73
2023/08/08 08:21:47;;;;;;;4.47;2.80;;;29.80;61.50;;;;;;5092026;28;20043;-69
2023/08/08 08:24:51;;;;;;;15.73;2.60;;;30.00;60.50;;;;;;5092310;28;20341;-71
2023/08/08 08:27:55;;;;;;;7.18;3.33;;;30.20;61.20;;;;;;5092027;28;20407;-71
2023/08/08 08:31:05;;;;;;;6.50;2.85;;;30.30;60.20;;;;;;5092201;28;20051;-69
2023/08/08 08:34:09;;;;;;;7.88;2.88;;;29.90;61.40;;;;;;5091990;28;20051;-66
2023/08/08 08:37:13;;;;;;;37.60;5.15;;;30.20;60.40;;;;;;5092083;28;20408;-82
2023/08/08 08:40:17;;;;;;;9.80;2.15;;;30.40;60.00;;;;;;5092413;28;20051;-89
2023/08/08 08:43:22;;;;;;;4.90;3.10;;;30.50;58.20;;;;;;5092311;28;20051;-71
2023/08/08 08:46:28;;;;;;;7.45;1.63;;;30.60;58.80;;;;;;5091862;28;20066;-72
2023/08/08 08:49:35;;;;;;;6.25;1.70;;;30.50;56.30;;;;;;5091644;28;20051;-79
2023/08/08 08:52:39;;;;;;;4.72;1.50;;;30.20;55.20;;;;;;5090656;28;20514;-82
2023/08/08 08:55:44;;;;;;;6.03;1.70;;;30.00;54.40;;;;;;5091865;28;20050;-80
2023/08/08 08:58:49;;;;;;;3.95;2.20;;;30.10;55.60;;;;;;5091699;28;20047;-81
2023/08/08 09:01:53;;;;;;;8.63;1.92;;;29.90;56.40;;;;;;5091775;28;20114;-83
2023/08/08 09:04:59;;;;;;;7.55;1.63;;;29.90;56.20;;;;;;5091634;28;20503;-75
2023/08/08 09:08:03;;;;;;;9.35;1.70;;;29.90;55.10;;;;;;5091710;28;20063;-76
2023/08/08 09:11:08;;;;;;;3.20;1.50;;;29.80;55.10;;;;;;5091355;28;20420;-71
2023/08/08 09:14:20;;;;;;;6.05;2.00;;;29.70;54.00;;;;;;5091349;28;20380;-75
2023/08/08 09:17:28;;;;;;;5.45;1.73;;;29.60;54.90;;;;;;5091343;28;20046;-75
2023/08/08 09:20:32;;;;;;;5.45;1.80;;;29.70;55.10;;;;;;5091447;28;20039;-72
2023/08/08 09:23:38;;;;;;;5.28;2.70;;;29.90;54.80;;;;;;5091081;28;20051;-75
2023/08/08 09:26:43;;;;;;;7.50;2.40;;;29.90;56.00;;;;;;5090971;28;20294;-73
2023/08/08 09:29:47;;;;;;;5.13;2.25;;;29.70;56.80;;;;;;5091206;28;20047;-72
2023/08/08 09:32:50;;;;;;;5.78;2.20;;;29.60;55.10;;;;;;5091044;28;20515;-73
2023/08/08 09:35:55;;;;;;;7.10;3.22;;;29.60;55.60;;;;;;5091271;28;20047;-72
2023/08/08 09:38:59;;;;;;;5.22;2.78;;;29.70;56.20;;;;;;5090915;28;20039;-74
2023/08/08 09:42:04;;;;;;;7.03;3.10;;;29.70;54.80;;;;;;5090955;28;20519;-70
2023/08/08 09:45:09;;;;;;;7.80;3.03;;;29.80;54.40;;;;;;5091130;28;20051;-72
2023/08/08 09:48:14;;;;;;;7.88;3.20;;;29.70;55.10;;;;;;5090348;28;20055;-75
2023/08/08 09:51:20;;;;;;;6.10;2.30;;;29.80;55.50;;;;;;5097576;28;20059;-74
2023/08/08 09:54:24;;;;;;;12.82;3.08;;;29.80;55.00;;;;;;5097439;28;20043;-74
2023/08/08 09:57:29;;;;;;;6.22;2.95;;;30.00;55.30;;;;;;5097402;28;20416;-74
2023/08/08 10:00:34;;;;;;;5.97;2.67;;;30.00;53.60;;;;;;5097655;28;20055;-73
2023/08/08 10:03:39;;;;;;;4.40;2.40;;;30.00;52.70;;;;;;5097831;28;20058;-74
2023/08/08 10:06:44;;;;;;;8.43;2.50;;;29.90;53.20;;;;;;5097514;28;20593;-74
2023/08/08 10:09:49;;;;;;;7.63;2.30;;;30.00;52.60;;;;;;5097482;28;20396;-74
2023/08/08 10:12:52;;;;;;;4.65;2.20;;;30.30;52.10;;;;;;5097088;28;20278;-74
2023/08/08 10:15:56;;;;;;;4.00;1.65;;;30.40;51.90;;;;;;5097444;28;20051;-74
2023/08/08 10:19:03;;;;;;;5.57;1.60;;;30.50;50.20;;;;;;5097420;28;20059;-74
2023/08/08 10:22:09;;;;;;;7.20;1.60;;;30.30;49.80;;;;;;5096961;28;20051;-73
2023/08/08 10:25:27;;;;;;;37.38;4.13;;;30.10;50.00;;;;;;5096244;28;20051;-72
2023/08/08 10:28:34;;;;;;;7.88;1.73;;;30.30;51.80;;;;;;5097411;28;20043;-73
2023/08/08 10:31:38;;;;;;;7.25;1.90;;;30.40;49.90;;;;;;5097121;28;20035;-74
2023/08/08 10:34:47;;;;;;;3.50;1.60;;;30.40;50.30;;;;;;5096968;28;20396;-73
2023/08/08 10:37:54;;;;;;;3.50;1.73;;;30.50;51.40;;;;;;5097258;28;20043;-74
2023/08/08 10:40:59;;;;;;;6.10;2.05;;;30.60;51.10;;;;;;5096760;28;20073;-75
2023/08/08 10:44:09;;;;;;;4.40;1.80;;;30.50;50.90;;;;;;5096835;28;20059;-72
2023/08/08 10:47:13;;;;;;;3.73;1.93;;;30.40;51.70;;;;;;5097162;28;20046;-73
2023/08/08 10:50:22;;;;;;;4.05;2.10;;;30.50;52.30;;;;;;5096988;28;20047;-74
2023/08/08 10:53:30;;;;;;;39.20;4.38;;;30.60;52.30;;;;;;5097255;28;20055;-72
2023/08/08 10:56:36;;;;;;;8.52;2.45;;;30.70;52.90;;;;;;5096877;28;20220;-73
2023/08/08 10:59:40;;;;;;;5.30;1.92;;;30.80;52.90;;;;;;5096293;28;20067;-72
2023/08/08 11:02:44;;;;;;;6.38;2.20;;;30.70;51.00;;;;;;5093774;28;20051;-71
2023/08/08 11:05:49;;;;;;;8.07;2.10;;;30.70;52.00;;;;;;5092942;28;20051;-72
2023/08/08 11:08:54;;;;;;;5.13;2.05;;;30.70;51.30;;;;;;5093419;28;20047;-71
2023/08/08 11:11:58;;;;;;;6.07;2.10;;;30.70;51.10;;;;;;5093674;28;20320;-72
2023/08/08 11:15:02;;;;;;;5.32;2.20;;;30.60;51.90;;;;;;5093786;28;20055;-71
2023/08/08 11:18:09;;;;;;;3.92;1.90;;;30.50;51.50;;;;;;5093765;28;20047;-72
2023/08/08 11:21:13;;;;;;;6.90;2.08;;;30.50;51.70;;;;;;5093397;28;20043;-71
2023/08/08 11:24:16;;;;;;;4.80;1.85;;;30.40;51.80;;;;;;5093318;28;20055;-71
2023/08/08 11:27:20;;;;;;;4.60;1.98;;;30.40;52.50;;;;;;5093210;28;20043;-71
2023/08/08 11:30:33;;;;;;;7.95;1.70;;;30.30;52.10;;;;;;5093091;28;20047;-72
2023/08/08 11:33:38;;;;;;;7.90;2.10;;;30.30;52.30;;;;;;5093463;28;20043;-71
2023/08/08 11:36:43;;;;;;;7.30;2.00;;;30.10;52.60;;;;;;5093430;28;20526;-72
2023/08/08 11:39:47;;;;;;;5.07;1.80;;;30.10;51.70;;;;;;5093440;28;20506;-71
2023/08/08 11:42:53;;;;;;;3.95;1.90;;;30.10;52.50;;;;;;5093247;28;20055;-72
2023/08/08 11:46:00;;;;;;;5.53;1.70;;;30.20;52.90;;;;;;5092959;28;20035;-71
2023/08/08 11:49:06;;;;;;;6.88;2.15;;;30.20;52.40;;;;;;5093242;28;20070;-72
2023/08/08 11:52:09;;;;;;;6.97;2.00;;;30.20;52.60;;;;;;5092982;28;20039;-72
2023/08/08 11:55:13;;;;;;;6.18;2.00;;;30.30;53.10;;;;;;5092818;28;20043;-72
2023/08/08 11:58:17;;;;;;;10.68;2.33;;;30.30;51.80;;;;;;5092663;28;20047;-73
2023/08/08 12:01:24;;;;;;;5.57;1.85;;;31.60;52.20;;;;;;5092880;28;20392;-72
2023/08/08 12:04:29;;;;;;;5.45;2.45;;;32.70;50.20;;;;;;5092599;28;20055;-72
2023/08/08 12:07:36;;;;;;;6.07;2.17;;;33.60;50.20;;;;;;5092833;28;20070;-72
2023/08/08 12:10:49;;;;;;;4.18;1.70;;;32.60;50.10;;;;;;5092556;28;20078;-73
2023/08/08 12:13:59;;;;;;;7.20;1.85;;;31.90;50.70;;;;;;5092497;28;20439;-73
2023/08/08 12:17:03;;;;;;;7.40;2.10;;;31.40;51.90;;;;;;5092526;28;20499;-72
2023/08/08 12:20:09;;;;;;;3.25;1.63;;;31.10;52.70;;;;;;5092274;28;20111;-72
2023/08/08 12:23:14;;;;;;;2.80;1.60;;;30.90;53.80;;;;;;5092477;28;20039;-72
2023/08/08 12:26:18;;;;;;;3.90;1.52;;;30.80;53.10;;;;;;5090802;28;20088;-72
2023/08/08 12:29:22;;;;;;;8.95;2.15;;;30.70;54.10;;;;;;5089577;28;20035;-67
2023/08/08 12:32:28;;;;;;;8.25;1.70;;;30.60;53.70;;;;;;5089273;28;20039;-69
2023/08/08 12:35:32;;;;;;;8.18;2.35;;;30.60;54.00;;;;;;5090306;28;20058;-68
2023/08/08 12:38:36;;;;;;;3.10;1.70;;;30.60;53.50;;;;;;5090893;28;20047;-68
2023/08/08 12:41:40;;;;;;;5.95;1.55;;;30.60;54.00;;;;;;5090615;28;20043;-67
2023/08/08 12:44:44;;;;;;;4.78;1.92;;;30.50;53.90;;;;;;5091719;28;20047;-67
2023/08/08 12:47:48;;;;;;;4.78;1.67;;;30.50;53.80;;;;;;5091641;28;20039;-67
2023/08/08 12:50:53;;;;;;;5.00;1.65;;;30.50;54.80;;;;;;5090726;28;20047;-67
2023/08/08 12:53:57;;;;;;;13.70;2.42;;;30.40;54.20;;;;;;5091778;28;20043;-67
2023/08/08 12:57:01;;;;;;;6.90;1.70;;;30.40;54.20;;;;;;5091748;28;20507;-67
2023/08/08 13:00:05;;;;;;;5.38;1.60;;;30.30;55.10;;;;;;5091920;28;20058;-66
2023/08/08 13:03:10;;;;;;;3.45;1.90;;;30.30;54.10;;;;;;5091587;28;20059;-68
2023/08/08 13:06:13;;;;;;;4.90;2.05;;;30.30;54.20;;;;;;5090950;28;20387;-67
2023/08/08 13:09:18;;;;;;;22.40;3.00;;;30.20;52.90;;;;;;5091501;28;20039;-66
2023/08/08 13:12:21;;;;;;;1.90;1.50;;;30.10;52.10;;;;;;5091691;28;20047;-67
2023/08/08 13:15:25;;;;;;;3.97;1.55;;;30.10;53.90;;;;;;5091482;28;20617;-69
2023/08/08 13:18:30;;;;;;;5.05;1.70;;;30.10;55.10;;;;;;5091716;28;20118;-68
2023/08/08 13:21:34;;;;;;;4.75;1.70;;;30.10;56.10;;;;;;5091394;28;20530;-69
2023/08/08 13:24:38;;;;;;;7.15;2.17;;;30.10;55.90;;;;;;5089872;28;20071;-69
2023/08/08 13:27:42;;;;;;;3.17;1.30;;;30.10;55.60;;;;;;5091070;28;20055;-69
2023/08/08 13:30:46;;;;;;;2.70;1.30;;;30.10;55.60;;;;;;5091357;28;20047;-69
2023/08/08 13:33:50;;;;;;;3.08;1.50;;;30.10;55.50;;;;;;5091039;28;20043;-69
2023/08/08 13:36:54;;;;;;;4.45;1.40;;;30.10;54.40;;;;;;5090923;28;20047;-69
2023/08/08 13:39:58;;;;;;;2.05;1.40;;;30.00;54.90;;;;;;5090130;28;20051;-69
2023/08/08 13:43:02;;;;;;;2.90;1.15;;;30.10;55.70;;;;;;5091275;28;20058;-69
2023/08/08 13:46:09;;;;;;;3.00;1.10;;;30.00;55.70;;;;;;5091180;28;20424;-69
2023/08/08 13:49:13;;;;;;;3.78;1.30;;;30.00;55.10;;;;;;5091037;28;20051;-69
2023/08/08 13:52:17;;;;;;;1.85;1.33;;;30.00;53.50;;;;;;5090937;28;20054;-69
2023/08/08 13:55:21;;;;;;;1.70;1.02;;;29.90;53.40;;;;;;5091024;28;20051;-69
2023/08/08 13:58:25;;;;;;;2.42;1.30;;;29.90;54.00;;;;;;5091205;28;20043;-69
2023/08/08 14:01:28;;;;;;;3.10;1.25;;;29.90;54.30;;;;;;5090721;28;20059;-69
2023/08/08 14:04:33;;;;;;;3.03;1.20;;;29.90;54.20;;;;;;5090520;28;20411;-69
2023/08/08 14:07:37;;;;;;;5.72;1.70;;;29.90;55.00;;;;;;5090682;28;20039;-69
2023/08/08 14:10:41;;;;;;;3.20;1.40;;;30.00;56.60;;;;;;5090804;28;20051;-69
2023/08/08 14:13:45;;;;;;;3.20;1.27;;;30.00;55.00;;;;;;5090713;28;20055;-69
2023/08/08 14:16:49;;;;;;;3.78;1.63;;;30.00;55.30;;;;;;5090908;28;20047;-69
2023/08/08 14:19:53;;;;;;;7.80;1.52;;;30.00;55.00;;;;;;5090514;28;20442;-69
2023/08/08 14:22:57;;;;;;;3.95;1.67;;;30.00;53.90;;;;;;5090634;28;20054;-69
2023/08/08 14:26:01;;;;;;;2.60;1.27;;;30.00;54.70;;;;;;5090617;28;20514;-69
2023/08/08 14:29:05;;;;;;;2.85;1.40;;;30.00;55.00;;;;;;5090480;28;20039;-69
2023/08/08 14:32:10;;;;;;;8.10;1.98;;;30.10;55.20;;;;;;5090457;28;20181;-69
2023/08/08 14:35:14;;;;;;;10.18;2.80;;;30.00;55.50;;;;;;5092845;28;20039;-68
2023/08/08 14:38:18;;;;;;;8.75;2.63;;;30.10;59.00;;;;;;5094503;28;20043;-68
2023/08/08 14:41:22;;;;;;;10.27;2.92;;;30.00;59.40;;;;;;5094502;28;20035;-69
2023/08/08 14:44:26;;;;;;;13.18;2.95;;;30.00;60.00;;;;;;5094278;28;20071;-69
2023/08/08 14:47:30;;;;;;;9.13;2.83;;;30.00;61.10;;;;;;5094132;28;20039;-69
2023/08/08 14:50:34;;;;;;;11.57;3.33;;;30.00;60.90;;;;;;5094108;28;20047;-69
2023/08/08 14:53:38;;;;;;;16.40;3.25;;;29.90;61.30;;;;;;5094312;28;20043;-69
2023/08/08 14:56:42;;;;;;;10.73;3.00;;;29.90;62.00;;;;;;5094062;28;20043;-69
2023/08/08 14:59:47;;;;;;;8.65;2.80;;;29.90;63.40;;;;;;5093916;28;20518;-69
2023/08/08 15:02:51;;;;;;;14.60;3.35;;;29.90;63.00;;;;;;5093670;28;20395;-69
2023/08/08 15:05:55;;;;;;;9.73;2.88;;;29.90;63.40;;;;;;5094001;28;20047;-69
2023/08/08 15:09:00;;;;;;;15.20;4.00;;;29.90;63.70;;;;;;5093484;28;20031;-69
2023/08/08 15:12:04;;;;;;;5.85;2.47;;;29.90;64.00;;;;;;5093540;28;20062;-68
2023/08/08 15:15:09;;;;;;;12.40;3.00;;;29.80;64.00;;;;;;5093778;28;20039;-68
2023/08/08 15:18:13;;;;;;;11.02;3.53;;;29.80;64.50;;;;;;5094354;28;20498;-68
2023/08/08 15:21:19;;;;;;;19.45;3.40;;;29.80;65.20;;;;;;5093492;28;20063;-68
2023/08/08 15:24:23;;;;;;;14.85;3.40;;;29.80;65.10;;;;;;5093523;28;20161;-69
2023/08/08 15:27:27;;;;;;;19.85;3.58;;;29.80;65.30;;;;;;5092953;28;20055;-68
2023/08/08 15:30:32;;;;;;;8.18;2.40;;;29.80;65.90;;;;;;5092442;28;20293;-67
2023/08/08 15:33:38;;;;;;;39.00;4.88;;;29.70;66.00;;;;;;5093519;28;20495;-68
2023/08/08 15:36:41;;;;;;;94.65;7.75;;;29.70;66.00;;;;;;5093073;28;20043;-70
2023/08/08 15:39:45;;;;;;;30.77;5.25;;;29.60;66.90;;;;;;5092125;28;20039;-67
2023/08/08 15:42:49;;;;;;;21.15;9.02;;;29.60;67.10;;;;;;5092659;28;20058;-69
2023/08/08 15:45:54;;;;;;;15.18;3.80;;;29.60;67.30;;;;;;5093118;28;20058;-71
2023/08/08 15:48:57;;;;;;;22.45;4.05;;;29.60;66.70;;;;;;5093032;28;20046;-66
2023/08/08 15:52:01;;;;;;;7.45;2.50;;;29.60;66.00;;;;;;5093017;28;20051;-67